createdAt,value
2024-02-22T00:03:20.546Z,99420.53
2024-02-22T01:42:15.316Z,99256.09
2024-02-22T01:47:18.700Z,99257.69
2024-02-22T01:52:23.247Z,99268.28
2024-02-22T01:57:25.366Z,99255.75
2024-02-22T02:02:28.949Z,99248.88
2024-02-22T02:07:31.377Z,99247.91
2024-02-22T02:12:33.790Z,99242.72
2024-02-22T02:17:36.177Z,99239.00
2024-02-22T02:22:57.512Z,99236.53
2024-02-22T02:27:59.883Z,99226.47
2024-02-22T02:33:17.274Z,99223.28
2024-02-22T02:38:19.520Z,99206.31
2024-02-22T02:43:21.617Z,99197.63
2024-02-22T02:48:23.786Z,99197.28
2024-02-22T02:53:25.890Z,99192.06
2024-02-22T02:58:27.874Z,99184.84
2024-02-22T03:39:51.932Z,99159.59
2024-02-22T03:44:53.870Z,99147.31
2024-02-22T03:49:55.866Z,99133.94
2024-02-22T03:54:57.848Z,99118.41
2024-02-22T03:59:59.910Z,99113.31
2024-02-22T04:05:05.617Z,99111.38
2024-02-22T04:10:08.068Z,99097.38
2024-02-22T04:15:10.295Z,99088.94
2024-02-22T04:20:12.493Z,99085.94
2024-02-22T04:25:14.806Z,99078.06
2024-02-22T04:30:17.012Z,99073.00
2024-02-22T04:35:20.111Z,99075.56
2024-02-22T04:40:22.088Z,99063.75
2024-02-22T04:45:24.259Z,99058.44
2024-02-22T04:50:26.136Z,99051.44
2024-02-22T04:55:28.550Z,99057.72
2024-02-22T05:00:31.445Z,99049.41
2024-02-22T05:05:33.662Z,99038.78
2024-02-22T05:10:35.904Z,99039.00
2024-02-22T05:15:37.956Z,99004.66
2024-02-22T05:20:40.350Z,99014.19
2024-02-22T05:25:43.146Z,99013.34
2024-02-22T05:30:45.427Z,99014.28
2024-02-22T05:35:47.918Z,99015.00
2024-02-22T05:40:50.182Z,99013.34
2024-02-22T05:45:52.103Z,98998.25
2024-02-22T05:50:54.252Z,98984.16
2024-02-22T05:55:56.456Z,98984.25
2024-02-22T06:00:58.484Z,98974.47
2024-02-22T06:06:00.622Z,98968.22
2024-02-22T06:11:04.391Z,98964.69
2024-02-22T06:16:07.035Z,98953.13
2024-02-22T06:21:09.550Z,98926.09
2024-02-22T06:26:11.520Z,98916.81
2024-02-22T06:31:13.393Z,98923.94
2024-02-22T06:36:15.740Z,98918.75
2024-02-22T06:41:19.906Z,98909.97
2024-02-22T06:46:25.694Z,98900.06
2024-02-22T06:51:28.043Z,98893.78
2024-02-22T06:56:30.078Z,98889.47
2024-02-22T07:01:33.879Z,98886.56
2024-02-22T07:06:35.905Z,98866.41
2024-02-22T07:11:38.226Z,98865.78
2024-02-22T07:16:42.216Z,98854.34
2024-02-22T07:21:44.605Z,98853.03
2024-02-22T07:26:47.516Z,98842.91
2024-02-22T07:31:49.452Z,98838.19
2024-02-22T07:36:51.863Z,98819.75
2024-02-22T07:41:53.956Z,98818.66
2024-02-22T07:46:56.005Z,98803.56
2024-02-22T07:51:59.255Z,98781.50
2024-02-22T07:57:01.331Z,98769.31
2024-02-22T08:02:04.177Z,98744.63
2024-02-22T08:07:06.647Z,98737.22
2024-02-22T08:12:08.953Z,98717.47
2024-02-22T08:17:11.892Z,98721.34
2024-02-22T08:22:13.917Z,98702.38
2024-02-22T08:27:15.905Z,98685.38
2024-02-22T08:32:18.319Z,98675.84
2024-02-22T08:37:20.371Z,98671.16
2024-02-22T08:42:22.521Z,98663.31
2024-02-22T08:47:25.035Z,98652.47
2024-02-22T08:52:26.994Z,98632.81
2024-02-22T08:57:30.097Z,98630.50
2024-02-22T09:02:35.184Z,98611.94
2024-02-22T09:07:37.560Z,98597.09
2024-02-22T09:12:41.906Z,98596.03
2024-02-22T09:17:43.944Z,98573.59
2024-02-22T09:22:45.909Z,98563.53
2024-02-22T09:27:47.962Z,98546.69
2024-02-22T09:32:51.708Z,98522.47
2024-02-22T09:37:53.759Z,98500.25
2024-02-22T09:42:56.700Z,98487.97
2024-02-22T09:48:01.506Z,98478.44
2024-02-22T09:53:04.227Z,98462.00
2024-02-22T09:58:06.418Z,98454.88
2024-02-22T10:03:08.608Z,98442.19
2024-02-22T10:08:11.498Z,98421.25
2024-02-22T10:13:21.884Z,98412.97
2024-02-22T10:18:29.168Z,98392.06
2024-02-22T10:23:31.494Z,98390.13
2024-02-22T10:28:34.518Z,98377.28
2024-02-22T10:33:37.541Z,98355.63
2024-02-22T10:38:40.117Z,98361.88
2024-02-22T10:43:45.063Z,98350.72
2024-02-22T10:48:55.446Z,98350.88
2024-02-22T10:53:58.229Z,98343.31
2024-02-22T10:59:04.493Z,98332.00
2024-02-22T11:04:06.919Z,98305.63
2024-02-22T11:09:20.087Z,98273.78
2024-02-22T11:14:32.748Z,98229.34
2024-02-22T11:19:36.932Z,98235.81
2024-02-22T11:24:38.897Z,98221.72
2024-02-22T11:29:40.781Z,98213.06
2024-02-22T11:34:42.974Z,98199.78
2024-02-22T11:39:46.119Z,98198.09
2024-02-22T11:44:48.205Z,98180.63
2024-02-22T11:49:50.434Z,98169.59
2024-02-22T11:54:52.671Z,98146.44
2024-02-22T11:59:54.556Z,98113.75
2024-02-22T12:04:56.551Z,98085.81
2024-02-22T12:09:58.645Z,98077.88
2024-02-22T12:15:03.407Z,98047.56
2024-02-22T12:20:07.807Z,98028.16
2024-02-22T12:25:10.108Z,98022.72
2024-02-22T12:30:13.201Z,97998.53
2024-02-22T12:35:15.860Z,97982.63
2024-02-22T12:40:17.868Z,97962.66
2024-02-22T12:45:21.501Z,97938.91
2024-02-22T12:50:23.735Z,97923.28
2024-02-22T12:55:25.675Z,97893.94
2024-02-22T13:00:27.679Z,97867.25
2024-02-22T13:05:32.638Z,97864.59
2024-02-22T13:10:34.722Z,97848.41
2024-02-22T13:15:36.999Z,97846.72
2024-02-22T13:20:38.967Z,97820.06
2024-02-22T13:25:41.470Z,97815.72
2024-02-22T13:30:43.975Z,97801.31
2024-02-22T13:35:46.022Z,97774.13
2024-02-22T13:40:48.130Z,97765.97
2024-02-22T13:45:50.244Z,97755.13
2024-02-22T13:50:56.017Z,97730.34
2024-02-22T13:55:58.095Z,97708.16
2024-02-22T14:01:00.156Z,97690.84
2024-02-22T14:06:04.801Z,97682.59
2024-02-22T14:11:08.405Z,97654.53
2024-02-22T14:16:10.807Z,97628.09
2024-02-22T14:21:15.236Z,97631.78
2024-02-22T14:26:17.241Z,97597.84
2024-02-22T14:31:20.844Z,97597.44
2024-02-22T14:36:23.385Z,97598.13
2024-02-22T14:41:25.648Z,97604.28
2024-02-22T14:46:30.620Z,97586.69
2024-02-22T14:51:32.566Z,97550.91
2024-02-22T14:56:34.719Z,97543.41
2024-02-22T15:01:38.067Z,97549.22
2024-02-22T15:06:46.699Z,97528.31
2024-02-22T15:11:49.032Z,97517.38
2024-02-22T15:16:53.185Z,97499.97
2024-02-22T15:21:55.407Z,97486.19
2024-02-22T15:27:01.369Z,97486.19
2024-02-22T15:32:05.998Z,97501.78
2024-02-22T15:37:10.079Z,97471.25
2024-02-22T15:42:12.048Z,97470.56
2024-02-22T15:47:14.042Z,97465.88
2024-02-22T15:52:16.038Z,97469.34
2024-02-22T15:57:18.039Z,97480.09
2024-02-22T16:02:21.251Z,97465.47
2024-02-22T16:07:23.360Z,97469.94
2024-02-22T16:12:25.655Z,97477.44
2024-02-22T16:17:27.599Z,97464.31
2024-02-22T16:22:30.696Z,97443.34
2024-02-22T16:27:33.709Z,97432.66
2024-02-22T16:32:35.784Z,97466.63
2024-02-22T16:37:37.911Z,97494.66
2024-02-22T16:42:39.919Z,97454.97
2024-02-22T16:47:43.541Z,97407.28
2024-02-22T16:52:45.503Z,97313.44
2024-02-22T16:57:47.487Z,97287.34
2024-02-22T17:02:49.556Z,97329.69
2024-02-22T17:07:51.905Z,97295.56
2024-02-22T17:12:53.841Z,97287.56
2024-02-22T17:17:55.789Z,97298.22
2024-02-22T17:22:58.229Z,97319.06
2024-02-22T17:28:00.158Z,97313.22
2024-02-22T17:33:02.201Z,97294.44
2024-02-22T17:38:04.256Z,97281.53
2024-02-22T17:43:06.653Z,97307.22
2024-02-22T17:48:09.271Z,97294.94
2024-02-22T17:53:11.332Z,97310.72
2024-02-22T17:58:15.004Z,97328.59
2024-02-22T18:03:17.094Z,97326.78
2024-02-22T18:08:19.301Z,97324.75
2024-02-22T18:13:21.459Z,97312.00
2024-02-22T18:18:23.811Z,97419.25
2024-02-22T18:23:26.039Z,97408.88
2024-02-22T18:28:27.996Z,97418.31
2024-02-22T18:33:30.183Z,97437.38
2024-02-22T18:38:33.917Z,97440.63
2024-02-22T18:43:35.895Z,97477.38
2024-02-22T18:48:41.026Z,97500.56
2024-02-22T18:53:43.271Z,97509.94
2024-02-22T18:58:45.192Z,97550.94
2024-02-22T19:03:47.153Z,97537.09
2024-02-22T19:08:49.317Z,97599.06
2024-02-22T19:13:51.763Z,97615.81
2024-02-22T19:18:54.047Z,97636.75
2024-02-22T19:23:55.932Z,97639.00
2024-02-22T19:28:58.968Z,97667.94
2024-02-22T19:34:02.364Z,97660.78
2024-02-22T19:39:04.881Z,97664.28
2024-02-22T19:44:07.615Z,97663.59
2024-02-22T19:49:09.735Z,97703.72
2024-02-22T19:54:11.886Z,97711.38
2024-02-22T19:59:14.977Z,97700.66
2024-02-22T20:04:17.076Z,97700.19
2024-02-22T20:09:18.982Z,97725.91
2024-02-22T20:14:21.043Z,97722.59
2024-02-22T20:19:23.256Z,97733.50
2024-02-22T20:24:25.223Z,97756.41
2024-02-22T20:29:27.241Z,97766.63
2024-02-22T20:34:29.290Z,97763.69
2024-02-22T20:39:31.383Z,97768.69
2024-02-22T20:44:33.706Z,97786.28
2024-02-22T20:49:35.872Z,97793.97
2024-02-22T20:54:37.815Z,97810.03
2024-02-22T20:59:42.665Z,97860.91
2024-02-22T21:04:44.882Z,97834.50
2024-02-22T21:09:47.416Z,97850.44
2024-02-22T21:14:49.389Z,97874.06
2024-02-22T21:19:51.412Z,97873.38
2024-02-22T21:24:53.568Z,97891.66
2024-02-22T21:29:55.535Z,97912.75
2024-02-22T21:34:58.506Z,97921.53
2024-02-22T21:40:02.635Z,97943.19
2024-02-22T21:45:05.644Z,97976.31
2024-02-22T21:50:10.052Z,97974.94
2024-02-22T21:55:12.266Z,97984.84
2024-02-22T22:00:14.637Z,97995.59
2024-02-22T22:05:17.218Z,98032.63
2024-02-22T22:10:19.181Z,98057.63
2024-02-22T22:15:21.406Z,98097.84
2024-02-22T22:20:23.729Z,98121.84
2024-02-22T22:25:25.972Z,98138.66
2024-02-22T22:30:28.001Z,98156.53
2024-02-22T22:35:29.943Z,98174.94
2024-02-22T22:40:31.884Z,98196.19
2024-02-22T22:45:33.770Z,98210.56
2024-02-22T22:50:35.871Z,98228.03
2024-02-22T22:55:37.920Z,98249.53
2024-02-22T23:00:39.985Z,98272.44
2024-02-22T23:05:42.053Z,98291.72
2024-02-22T23:10:44.157Z,98303.34
2024-02-22T23:15:48.819Z,98330.84
2024-02-22T23:20:50.810Z,98336.84
2024-02-22T23:25:52.776Z,98340.75
2024-02-22T23:30:54.790Z,98365.50
2024-02-22T23:35:56.938Z,98365.50
2024-02-22T23:41:10.611Z,98367.16
2024-02-22T23:46:20.816Z,98382.25
2024-02-22T23:51:22.859Z,98394.81
2024-02-22T23:56:25.824Z,98381.25
